createdAt,value
2018-05-07T00:01:24.702Z,65.30
2018-05-07T00:03:52.158Z,65.29
2018-05-07T00:06:19.694Z,65.67
2018-05-07T00:08:47.154Z,66.26
2018-05-07T00:11:14.711Z,66.99
2018-05-07T00:13:42.272Z,67.00
2018-05-07T00:16:09.751Z,66.42
2018-05-07T00:18:37.218Z,66.53
2018-05-07T00:21:04.694Z,66.72
2018-05-07T00:23:32.247Z,66.26
2018-05-07T00:25:59.708Z,66.48
2018-05-07T00:28:27.166Z,66.51
2018-05-07T00:30:54.656Z,66.06
2018-05-07T00:33:22.125Z,66.28
2018-05-07T00:35:49.652Z,66.69
2018-05-07T00:38:17.114Z,67.61
2018-05-07T00:40:44.615Z,67.37
2018-05-07T00:43:12.078Z,67.38
2018-05-07T00:45:39.550Z,67.59
2018-05-07T00:48:07.030Z,67.90
2018-05-07T00:50:34.486Z,68.11
2018-05-07T00:53:01.965Z,67.93
2018-05-07T00:55:29.439Z,67.83
2018-05-07T00:57:56.923Z,68.82
2018-05-07T01:00:24.385Z,68.10
2018-05-07T01:02:51.877Z,67.72
2018-05-07T01:05:19.362Z,67.97
2018-05-07T01:07:46.851Z,68.20
2018-05-07T01:10:14.311Z,68.21
2018-05-07T01:12:42.440Z,68.61
2018-05-07T01:15:10.342Z,69.24
2018-05-07T01:17:37.840Z,69.83
2018-05-07T01:20:05.338Z,70.21
2018-05-07T01:22:32.840Z,70.17
2018-05-07T01:25:00.319Z,70.24
2018-05-07T01:27:27.809Z,71.76
2018-05-07T01:29:55.278Z,71.37
2018-05-07T01:32:22.775Z,71.39
2018-05-07T01:34:50.254Z,71.54
2018-05-07T01:37:17.755Z,71.30
2018-05-07T01:39:45.226Z,71.17
2018-05-07T01:42:12.710Z,71.66
2018-05-07T01:44:40.240Z,70.47
2018-05-07T01:47:07.776Z,70.52
2018-05-07T01:49:35.309Z,70.12
2018-05-07T01:52:02.802Z,70.41
2018-05-07T01:54:30.270Z,69.62
2018-05-07T01:56:57.763Z,70.26
2018-05-07T01:59:25.247Z,69.53
2018-05-07T02:01:52.750Z,69.71
2018-05-07T02:04:20.266Z,70.34
2018-05-07T02:06:47.791Z,70.71
2018-05-07T02:09:15.273Z,71.61
2018-05-07T02:11:42.774Z,71.10
2018-05-07T02:14:10.250Z,71.30
2018-05-07T02:16:37.718Z,71.64
2018-05-07T02:19:05.227Z,71.39
2018-05-07T02:21:32.703Z,70.61
2018-05-07T02:24:00.194Z,70.84
2018-05-07T02:26:27.678Z,72.11
2018-05-07T02:28:55.171Z,73.14
2018-05-07T02:31:22.756Z,71.23
2018-05-07T02:33:50.175Z,70.51
2018-05-07T02:36:17.647Z,71.49
2018-05-07T02:38:45.134Z,71.58
2018-05-07T02:41:12.602Z,72.40
2018-05-07T02:43:40.107Z,72.36
2018-05-07T02:46:07.576Z,71.79
2018-05-07T02:48:35.072Z,71.70
2018-05-07T02:51:02.614Z,71.47
2018-05-07T02:53:30.137Z,71.92
2018-05-07T02:55:57.698Z,71.47
2018-05-07T02:58:25.178Z,72.25
2018-05-07T03:00:52.659Z,72.56
2018-05-07T03:03:20.303Z,72.44
2018-05-07T03:05:47.758Z,73.11
2018-05-07T03:08:15.244Z,72.70
2018-05-07T03:10:42.863Z,72.26
2018-05-07T03:13:10.347Z,73.69
2018-05-07T03:15:37.873Z,73.87
2018-05-07T03:18:05.432Z,73.61
2018-05-07T03:20:32.918Z,73.59
2018-05-07T03:23:00.442Z,73.51
2018-05-07T03:25:27.903Z,73.61
2018-05-07T03:27:55.458Z,73.34
2018-05-07T03:30:22.913Z,73.07
2018-05-07T03:32:50.401Z,72.58
2018-05-07T03:35:17.855Z,72.73
2018-05-07T03:37:45.439Z,72.42
2018-05-07T03:40:12.906Z,72.51
2018-05-07T03:42:40.520Z,73.14
2018-05-07T03:45:07.977Z,73.20
2018-05-07T03:47:35.455Z,73.17
2018-05-07T03:50:03.033Z,73.21
2018-05-07T03:52:31.513Z,74.03
2018-05-07T03:54:59.037Z,73.37
2018-05-07T03:57:26.507Z,73.75
2018-05-07T03:59:54.050Z,73.77
2018-05-07T04:02:21.619Z,74.34
2018-05-07T04:04:49.168Z,74.25
2018-05-07T04:07:16.737Z,74.28
2018-05-07T04:09:44.322Z,74.44
2018-05-07T04:12:11.823Z,75.21
2018-05-07T04:14:39.275Z,75.21
2018-05-07T04:17:18.595Z,74.52
2018-05-07T04:19:58.002Z,74.13
2018-05-07T04:22:37.319Z,75.30
2018-05-07T04:25:04.877Z,74.58
2018-05-07T04:27:32.414Z,74.65
2018-05-07T04:29:59.899Z,74.39
2018-05-07T04:32:27.452Z,74.55
2018-05-07T04:34:54.930Z,74.06
2018-05-07T04:37:22.386Z,74.42
2018-05-07T04:39:49.878Z,74.32
2018-05-07T04:42:17.350Z,74.73
2018-05-07T04:44:44.943Z,74.16
2018-05-07T04:47:12.499Z,74.76
2018-05-07T04:49:39.978Z,75.19
2018-05-07T04:52:07.478Z,74.08
2018-05-07T04:54:34.970Z,74.32
2018-05-07T04:57:02.551Z,74.82
2018-05-07T04:59:30.093Z,74.13
2018-05-07T05:01:57.550Z,73.50
2018-05-07T05:04:25.061Z,72.72
2018-05-07T05:06:52.578Z,72.71
2018-05-07T05:09:20.172Z,72.81
2018-05-07T05:11:47.627Z,73.28
2018-05-07T05:14:15.150Z,72.22
2018-05-07T05:16:42.706Z,72.27
2018-05-07T05:19:11.271Z,72.62
2018-05-07T05:21:38.716Z,71.67
2018-05-07T05:24:06.197Z,70.82
2018-05-07T05:26:33.732Z,70.28
2018-05-07T05:29:01.199Z,69.19
2018-05-07T05:31:28.788Z,69.09
2018-05-07T05:33:56.447Z,67.99
2018-05-07T05:36:23.925Z,67.23
2018-05-07T05:38:51.386Z,66.91
2018-05-07T05:41:18.870Z,66.89
2018-05-07T05:43:46.444Z,67.08
2018-05-07T05:46:13.859Z,66.08
2018-05-07T05:48:41.331Z,66.92
2018-05-07T05:51:08.814Z,66.08
2018-05-07T05:53:36.284Z,66.18
2018-05-07T05:56:03.784Z,65.62
2018-05-07T05:58:31.333Z,65.09
2018-05-07T06:00:58.886Z,64.89
2018-05-07T06:03:26.455Z,63.96
2018-05-07T06:05:53.939Z,63.51
2018-05-07T06:08:21.400Z,63.12
2018-05-07T06:10:48.970Z,63.02
2018-05-07T06:13:18.122Z,61.88
2018-05-07T06:15:45.602Z,60.67
2018-05-07T06:18:13.062Z,59.26
2018-05-07T06:20:40.595Z,58.90
2018-05-07T06:23:08.151Z,59.12
2018-05-07T06:25:35.714Z,58.64
2018-05-07T06:28:03.178Z,58.72
2018-05-07T06:30:30.707Z,59.79
2018-05-07T06:32:58.173Z,59.74
2018-05-07T06:35:25.654Z,59.28
2018-05-07T06:37:53.118Z,59.17
2018-05-07T06:40:20.634Z,59.58
2018-05-07T06:42:48.106Z,59.45
2018-05-07T06:45:15.623Z,59.83
2018-05-07T06:47:43.166Z,58.90
2018-05-07T06:50:10.658Z,59.12
2018-05-07T06:52:42.194Z,57.92
2018-05-07T06:55:09.715Z,57.98
2018-05-07T06:57:37.198Z,57.69
2018-05-07T07:00:04.664Z,58.24
2018-05-07T07:02:32.322Z,57.85
2018-05-07T07:04:59.722Z,57.45
2018-05-07T07:07:27.301Z,57.35
2018-05-07T07:09:54.699Z,57.17
2018-05-07T07:12:22.191Z,56.61
2018-05-07T07:14:49.650Z,55.97
2018-05-07T07:17:17.239Z,54.20
2018-05-07T07:19:44.834Z,54.05
2018-05-07T07:22:12.339Z,53.71
2018-05-07T07:24:39.800Z,53.13
2018-05-07T07:27:07.286Z,52.44
2018-05-07T07:29:34.838Z,52.74
2018-05-07T07:32:02.318Z,52.33
2018-05-07T07:34:29.856Z,52.09
2018-05-07T07:36:57.406Z,54.58
2018-05-07T07:39:24.873Z,54.64
2018-05-07T07:41:53.335Z,54.64
2018-05-07T07:44:20.808Z,54.46
2018-05-07T07:46:48.310Z,54.13
2018-05-07T07:49:15.874Z,53.32
2018-05-07T07:51:43.398Z,53.55
2018-05-07T07:54:10.863Z,53.42
2018-05-07T07:56:38.361Z,51.97
2018-05-07T07:59:05.896Z,51.21
2018-05-07T08:01:33.598Z,51.04
2018-05-07T08:04:01.078Z,50.69
2018-05-07T08:06:28.843Z,49.71
2018-05-07T08:08:56.330Z,49.23
2018-05-07T08:11:23.822Z,49.00
2018-05-07T08:13:51.337Z,48.30
2018-05-07T08:16:18.823Z,48.03
2018-05-07T08:18:46.346Z,48.37
2018-05-07T08:21:13.856Z,47.98
2018-05-07T08:23:41.415Z,48.36
2018-05-07T08:26:08.890Z,47.37
2018-05-07T08:28:36.495Z,46.74
2018-05-07T08:31:04.074Z,46.54
2018-05-07T08:33:31.570Z,45.46
2018-05-07T08:35:59.035Z,45.02
2018-05-07T08:38:26.673Z,45.22
2018-05-07T08:40:54.163Z,45.41
2018-05-07T08:43:21.771Z,45.27
2018-05-07T08:45:49.242Z,44.69
2018-05-07T08:48:16.950Z,43.89
2018-05-07T08:50:44.456Z,43.52
2018-05-07T08:53:12.051Z,41.94
2018-05-07T08:55:39.482Z,41.02
2018-05-07T08:58:07.026Z,39.99
2018-05-07T09:00:34.573Z,40.24
2018-05-07T09:03:02.171Z,39.66
2018-05-07T09:05:29.742Z,39.23
2018-05-07T09:07:57.276Z,38.56
2018-05-07T09:10:24.726Z,38.81
2018-05-07T09:12:52.245Z,38.94
2018-05-07T09:15:19.754Z,37.92
2018-05-07T09:17:47.251Z,38.10
2018-05-07T09:20:14.723Z,36.97
2018-05-07T09:22:42.274Z,36.37
2018-05-07T09:25:09.775Z,34.86
2018-05-07T09:27:37.290Z,36.43
2018-05-07T09:30:04.761Z,34.28
2018-05-07T09:32:32.255Z,34.80
2018-05-07T09:34:59.912Z,33.40
2018-05-07T09:37:27.691Z,33.17
2018-05-07T09:39:55.171Z,32.60
2018-05-07T09:42:22.663Z,32.53
2018-05-07T09:44:50.152Z,31.15
2018-05-07T09:47:17.642Z,30.10
2018-05-07T09:49:45.126Z,30.00
2018-05-07T09:52:12.590Z,29.22
2018-05-07T09:54:40.087Z,28.15
2018-05-07T09:57:07.577Z,27.55
2018-05-07T09:59:35.054Z,26.39
2018-05-07T10:02:02.591Z,25.75
2018-05-07T10:04:30.074Z,24.87
2018-05-07T10:06:57.639Z,23.99
2018-05-07T10:09:25.190Z,24.29
2018-05-07T10:11:52.646Z,24.52
2018-05-07T10:14:20.138Z,24.69
2018-05-07T10:16:48.912Z,24.16
2018-05-07T10:19:16.445Z,22.98
2018-05-07T10:21:44.123Z,23.33
2018-05-07T10:24:11.662Z,23.18
2018-05-07T10:26:39.105Z,22.98
2018-05-07T10:29:06.602Z,22.28
2018-05-07T10:31:35.967Z,21.66
2018-05-07T10:34:03.600Z,22.42
2018-05-07T10:36:31.070Z,20.99
2018-05-07T10:38:58.599Z,21.48
2018-05-07T10:41:26.072Z,22.44
2018-05-07T10:43:53.705Z,21.33
2018-05-07T10:46:21.171Z,20.00
2018-05-07T10:48:48.873Z,20.67
2018-05-07T10:51:16.390Z,23.45
2018-05-07T10:53:43.879Z,21.44
2018-05-07T10:56:11.452Z,20.16
2018-05-07T10:58:38.916Z,20.30
2018-05-07T11:01:06.452Z,19.73
2018-05-07T11:03:33.963Z,20.57
2018-05-07T11:06:01.487Z,19.90
2018-05-07T11:08:28.978Z,21.02
2018-05-07T11:10:56.434Z,21.34
2018-05-07T11:13:24.931Z,18.46
2018-05-07T11:15:52.394Z,17.89
2018-05-07T11:18:19.972Z,17.24
2018-05-07T11:20:47.543Z,19.42
2018-05-07T11:23:15.015Z,16.72
2018-05-07T11:25:42.526Z,18.84
2018-05-07T11:28:10.091Z,16.77
2018-05-07T11:30:37.645Z,17.72
2018-05-07T11:33:05.146Z,15.36
2018-05-07T11:35:32.651Z,15.59
2018-05-07T11:38:00.215Z,15.76
2018-05-07T11:40:27.703Z,15.44
2018-05-07T11:42:55.182Z,15.48
2018-05-07T11:45:22.726Z,13.93
2018-05-07T11:47:50.266Z,14.03
2018-05-07T11:50:17.763Z,16.16
2018-05-07T11:52:45.235Z,13.40
2018-05-07T11:55:12.787Z,13.47
2018-05-07T11:57:40.271Z,12.79
2018-05-07T12:00:07.762Z,13.77
2018-05-07T12:02:35.256Z,13.66
2018-05-07T12:05:02.881Z,14.04
2018-05-07T12:07:30.410Z,14.52
2018-05-07T12:10:00.639Z,12.39
2018-05-07T12:12:28.207Z,15.22
2018-05-07T12:14:55.714Z,12.07
2018-05-07T12:17:23.241Z,12.73
2018-05-07T12:19:50.741Z,12.11
2018-05-07T12:22:18.342Z,12.24
2018-05-07T12:24:45.847Z,11.38
2018-05-07T12:27:13.386Z,12.04
2018-05-07T12:29:40.878Z,12.36
2018-05-07T12:32:08.398Z,11.01
2018-05-07T12:34:35.887Z,12.57
2018-05-07T12:37:03.405Z,13.13
2018-05-07T12:39:30.970Z,11.31
2018-05-07T12:41:58.454Z,10.59
2018-05-07T12:44:25.934Z,12.19
2018-05-07T12:46:53.561Z,10.51
2018-05-07T12:49:21.032Z,9.50
2018-05-07T12:51:48.491Z,9.87
2018-05-07T12:54:16.091Z,11.07
2018-05-07T12:56:43.570Z,9.80
2018-05-07T12:59:11.096Z,10.74
2018-05-07T13:01:38.554Z,10.99
2018-05-07T13:04:06.025Z,11.35
2018-05-07T13:06:33.518Z,12.64
2018-05-07T13:09:00.998Z,11.19
2018-05-07T13:11:28.624Z,11.30
2018-05-07T13:13:56.046Z,12.55
2018-05-07T13:16:23.562Z,10.46
2018-05-07T13:18:51.116Z,10.07
2018-05-07T13:21:18.694Z,9.81
2018-05-07T13:23:46.182Z,9.16
2018-05-07T13:26:13.691Z,9.18
2018-05-07T13:28:41.268Z,10.32
2018-05-07T13:31:08.771Z,8.39
2018-05-07T13:33:36.235Z,9.77
2018-05-07T13:36:03.714Z,9.33
2018-05-07T13:38:31.200Z,9.86
2018-05-07T13:40:58.729Z,9.63
2018-05-07T13:43:26.233Z,8.47
2018-05-07T13:45:53.733Z,10.02
2018-05-07T13:48:21.264Z,11.05
2018-05-07T13:50:48.747Z,10.71
2018-05-07T13:53:16.276Z,9.54
2018-05-07T13:55:43.766Z,9.20
2018-05-07T13:58:11.222Z,8.85
2018-05-07T14:00:38.794Z,9.67
2018-05-07T14:03:06.350Z,8.66
2018-05-07T14:05:33.849Z,8.87
2018-05-07T14:08:01.311Z,8.27
2018-05-07T14:10:28.806Z,8.12
2018-05-07T14:12:56.278Z,8.64
2018-05-07T14:15:23.799Z,9.13
2018-05-07T14:17:51.285Z,8.92
2018-05-07T14:20:18.767Z,7.83
2018-05-07T14:22:46.302Z,6.83
2018-05-07T14:25:13.791Z,7.19
2018-05-07T14:27:41.259Z,8.49
2018-05-07T14:30:08.791Z,7.69
2018-05-07T14:32:36.282Z,7.72
2018-05-07T14:35:03.760Z,7.21
2018-05-07T14:37:31.276Z,7.54
2018-05-07T14:39:58.764Z,7.70
2018-05-07T14:42:26.291Z,8.38
2018-05-07T14:44:53.750Z,8.24
2018-05-07T14:47:21.264Z,8.22
2018-05-07T14:49:48.743Z,7.83
2018-05-07T14:52:16.231Z,8.31
2018-05-07T14:54:43.686Z,9.04
2018-05-07T14:57:11.163Z,8.49
2018-05-07T14:59:38.654Z,8.71
2018-05-07T15:02:06.191Z,8.65
2018-05-07T15:04:33.680Z,9.77
2018-05-07T15:07:01.191Z,11.38
2018-05-07T15:09:28.727Z,13.02
2018-05-07T15:11:56.295Z,14.42
2018-05-07T15:14:23.758Z,15.60
2018-05-07T15:16:51.345Z,15.81
2018-05-07T15:19:18.812Z,15.51
2018-05-07T15:21:46.354Z,13.68
2018-05-07T15:24:13.820Z,13.41
2018-05-07T15:26:41.330Z,15.25
2018-05-07T15:29:08.809Z,16.99
2018-05-07T15:31:36.301Z,17.86
2018-05-07T15:34:03.828Z,18.86
2018-05-07T15:36:31.376Z,19.07
2018-05-07T15:38:58.943Z,18.99
2018-05-07T15:41:26.440Z,19.56
2018-05-07T15:43:53.961Z,19.80
2018-05-07T15:46:21.481Z,20.81
2018-05-07T15:48:49.467Z,21.28
2018-05-07T15:51:16.955Z,20.59
2018-05-07T15:53:44.451Z,20.52
2018-05-07T15:56:12.054Z,20.05
2018-05-07T15:58:39.657Z,19.50
2018-05-07T16:01:07.183Z,17.87
2018-05-07T16:03:34.730Z,18.67
2018-05-07T16:06:02.315Z,19.79
2018-05-07T16:08:29.904Z,20.09
2018-05-07T16:10:57.371Z,20.56
2018-05-07T16:13:24.858Z,20.89
2018-05-07T16:15:52.332Z,19.91
2018-05-07T16:18:19.912Z,19.76
2018-05-07T16:20:47.395Z,16.87
2018-05-07T16:23:15.060Z,12.61
2018-05-07T16:25:42.481Z,10.91
2018-05-07T16:28:09.944Z,11.63
2018-05-07T16:30:37.491Z,12.01
2018-05-07T16:33:05.028Z,13.41
2018-05-07T16:35:32.494Z,12.95
2018-05-07T16:37:59.978Z,13.09
2018-05-07T16:40:27.555Z,13.94
2018-05-07T16:42:55.127Z,16.40
2018-05-07T16:45:22.611Z,18.46
2018-05-07T16:47:50.103Z,20.91
2018-05-07T16:50:17.639Z,20.53
2018-05-07T16:52:45.164Z,19.00
2018-05-07T16:55:12.648Z,17.41
2018-05-07T16:57:40.140Z,18.34
2018-05-07T17:00:07.599Z,16.34
2018-05-07T17:02:35.086Z,14.64
2018-05-07T17:05:02.635Z,13.53
2018-05-07T17:07:30.170Z,14.15
2018-05-07T17:09:57.730Z,17.05
2018-05-07T17:12:25.290Z,17.20
2018-05-07T17:14:52.899Z,17.35
2018-05-07T17:17:20.423Z,16.46
2018-05-07T17:19:48.862Z,18.87
2018-05-07T17:22:17.360Z,19.96
2018-05-07T17:24:44.896Z,21.05
2018-05-07T17:27:12.429Z,22.08
2018-05-07T17:29:39.905Z,22.46
2018-05-07T17:32:07.452Z,23.06
2018-05-07T17:34:34.894Z,23.44
2018-05-07T17:37:02.413Z,23.89
2018-05-07T17:39:29.910Z,24.79
2018-05-07T17:41:57.443Z,24.92
2018-05-07T17:44:37.042Z,25.54
2018-05-07T17:47:16.494Z,25.72
2018-05-07T17:49:43.999Z,25.53
2018-05-07T17:52:11.548Z,26.26
2018-05-07T17:54:39.113Z,26.08
2018-05-07T17:57:06.611Z,26.61
2018-05-07T17:59:34.131Z,26.15
2018-05-07T18:02:01.651Z,26.08
2018-05-07T18:04:29.136Z,26.73
2018-05-07T18:06:56.699Z,27.51
2018-05-07T18:09:24.254Z,27.55
2018-05-07T18:11:51.720Z,27.63
2018-05-07T18:14:19.231Z,28.50
2018-05-07T18:16:46.723Z,28.72
2018-05-07T18:19:14.229Z,28.89
2018-05-07T18:21:41.743Z,29.27
2018-05-07T18:24:09.226Z,30.01
2018-05-07T18:26:36.712Z,29.93
2018-05-07T18:29:04.219Z,30.29
2018-05-07T18:31:31.693Z,30.47
2018-05-07T18:33:59.186Z,31.06
2018-05-07T18:36:26.674Z,31.49
2018-05-07T18:38:54.228Z,31.93
2018-05-07T18:41:21.719Z,32.10
2018-05-07T18:43:49.319Z,32.68
2018-05-07T18:46:16.871Z,33.47
2018-05-07T18:48:44.366Z,34.29
2018-05-07T18:51:11.867Z,34.56
2018-05-07T18:53:39.378Z,34.59
2018-05-07T18:56:06.882Z,34.72
2018-05-07T18:58:34.443Z,35.18
2018-05-07T19:01:01.927Z,35.17
2018-05-07T19:03:29.419Z,35.84
2018-05-07T19:05:56.906Z,37.23
2018-05-07T19:08:24.370Z,37.72
2018-05-07T19:10:51.855Z,37.94
2018-05-07T19:13:19.450Z,38.17
2018-05-07T19:15:46.979Z,38.73
2018-05-07T19:18:14.441Z,39.55
2018-05-07T19:20:41.951Z,39.37
2018-05-07T19:23:09.471Z,39.99
2018-05-07T19:25:37.193Z,40.31
2018-05-07T19:28:04.735Z,40.93
2018-05-07T19:30:32.239Z,41.25
2018-05-07T19:32:59.767Z,41.08
2018-05-07T19:35:27.305Z,41.54
2018-05-07T19:37:54.878Z,41.65
2018-05-07T19:40:22.382Z,42.29
2018-05-07T19:42:49.874Z,42.31
2018-05-07T19:45:17.389Z,43.03
2018-05-07T19:47:44.878Z,43.16
2018-05-07T19:50:12.447Z,44.12
2018-05-07T19:52:40.026Z,43.89
2018-05-07T19:55:07.578Z,44.52
2018-05-07T19:57:35.054Z,43.97
2018-05-07T20:00:02.644Z,44.71
2018-05-07T20:02:30.142Z,44.42
2018-05-07T20:04:57.655Z,44.31
2018-05-07T20:07:28.191Z,44.20
2018-05-07T20:09:55.702Z,44.56
2018-05-07T20:12:23.214Z,43.57
2018-05-07T20:14:50.682Z,43.83
2018-05-07T20:17:20.306Z,44.35
2018-05-07T20:19:47.844Z,44.23
2018-05-07T20:22:15.335Z,44.49
2018-05-07T20:24:42.848Z,44.74
2018-05-07T20:27:10.318Z,44.43
2018-05-07T20:29:37.811Z,44.34
2018-05-07T20:32:05.297Z,44.77
2018-05-07T20:34:32.767Z,45.67
2018-05-07T20:37:00.255Z,46.17
2018-05-07T20:39:27.730Z,46.65
2018-05-07T20:41:55.318Z,46.03
2018-05-07T20:44:22.876Z,46.07
2018-05-07T20:46:50.447Z,46.55
2018-05-07T20:49:18.074Z,46.31
2018-05-07T20:51:45.662Z,46.30
2018-05-07T20:54:13.122Z,45.56
2018-05-07T20:56:40.603Z,44.46
2018-05-07T20:59:08.158Z,43.62
2018-05-07T21:01:35.772Z,43.61
2018-05-07T21:04:03.252Z,42.62
2018-05-07T21:06:30.815Z,42.24
2018-05-07T21:08:58.292Z,42.48
2018-05-07T21:11:25.790Z,42.05
2018-05-07T21:13:53.293Z,41.00
2018-05-07T21:16:20.889Z,41.15
2018-05-07T21:18:48.431Z,39.79
2018-05-07T21:21:15.979Z,39.75
2018-05-07T21:23:43.446Z,39.25
2018-05-07T21:26:11.011Z,39.47
2018-05-07T21:28:38.499Z,40.41
2018-05-07T21:31:06.034Z,40.77
2018-05-07T21:33:33.563Z,41.70
2018-05-07T21:36:01.052Z,42.19
2018-05-07T21:38:28.510Z,46.67
2018-05-07T21:40:56.006Z,48.42
2018-05-07T21:43:23.492Z,49.07
2018-05-07T21:45:51.101Z,49.59
2018-05-07T21:48:18.611Z,50.29
2018-05-07T21:50:46.118Z,50.73
2018-05-07T21:53:13.631Z,51.14
2018-05-07T21:55:41.186Z,51.80
2018-05-07T21:58:08.664Z,52.05
2018-05-07T22:00:36.228Z,52.59
2018-05-07T22:03:03.695Z,52.84
2018-05-07T22:05:31.267Z,53.33
2018-05-07T22:07:58.792Z,53.59
2018-05-07T22:10:26.230Z,53.39
2018-05-07T22:12:53.717Z,54.08
2018-05-07T22:15:21.282Z,54.40
2018-05-07T22:17:48.745Z,54.68
2018-05-07T22:20:16.295Z,54.20
2018-05-07T22:22:43.795Z,54.54
2018-05-07T22:25:11.304Z,55.06
2018-05-07T22:27:38.866Z,54.95
2018-05-07T22:30:06.331Z,55.11
2018-05-07T22:32:33.870Z,55.55
2018-05-07T22:35:01.326Z,55.89
2018-05-07T22:37:28.821Z,55.77
2018-05-07T22:39:56.513Z,56.10
2018-05-07T22:42:24.007Z,56.64
2018-05-07T22:44:51.475Z,56.76
2018-05-07T22:47:19.022Z,57.08
2018-05-07T22:49:46.603Z,57.72
2018-05-07T22:52:14.242Z,57.88
2018-05-07T22:54:41.702Z,58.82
2018-05-07T22:57:09.267Z,58.90
2018-05-07T22:59:36.730Z,59.62
2018-05-07T23:02:04.219Z,59.64
2018-05-07T23:04:31.707Z,60.39
2018-05-07T23:06:59.438Z,60.13
2018-05-07T23:09:26.903Z,59.58
2018-05-07T23:11:54.390Z,59.71
2018-05-07T23:14:21.918Z,60.18
2018-05-07T23:16:49.436Z,60.26
2018-05-07T23:19:16.906Z,60.86
2018-05-07T23:21:44.399Z,61.21
2018-05-07T23:24:12.021Z,61.41
2018-05-07T23:26:39.595Z,61.68
2018-05-07T23:29:07.111Z,61.88
2018-05-07T23:31:34.692Z,62.15
2018-05-07T23:34:02.174Z,63.12
2018-05-07T23:36:29.730Z,63.17
2018-05-07T23:38:57.311Z,63.86
2018-05-07T23:41:24.834Z,63.92
2018-05-07T23:43:52.323Z,63.61
2018-05-07T23:46:21.898Z,63.94
2018-05-07T23:48:49.382Z,62.57
2018-05-07T23:51:16.851Z,61.71
2018-05-07T23:53:44.480Z,60.92
2018-05-07T23:56:12.035Z,62.54
2018-05-07T23:58:39.514Z,63.10
